createdAt,value
2023-05-08T00:01:05.213Z,100936.47
2023-05-08T00:03:34.137Z,100938.28
2023-05-08T00:06:09.563Z,100935.59
2023-05-08T00:08:38.198Z,100934.59
2023-05-08T00:11:06.966Z,100938.97
2023-05-08T00:13:35.427Z,100938.28
2023-05-08T00:16:04.362Z,100934.91
2023-05-08T00:18:32.855Z,100934.91
2023-05-08T00:21:01.682Z,100933.41
2023-05-08T00:23:30.162Z,100936.47
2023-05-08T00:25:59.016Z,100937.28
2023-05-08T00:28:27.708Z,100932.91
2023-05-08T00:30:59.610Z,100920.50
2023-05-08T00:33:28.194Z,100911.78
2023-05-08T00:36:03.514Z,100907.41
2023-05-08T00:38:33.734Z,100909.09
2023-05-08T00:41:02.930Z,100909.41
2023-05-08T00:43:31.526Z,100909.78
2023-05-08T00:46:02.007Z,100910.75
2023-05-08T00:48:33.016Z,100909.78
2023-05-08T00:51:03.728Z,100908.06
2023-05-08T00:53:33.708Z,100903.72
2023-05-08T00:56:02.720Z,100896.31
2023-05-08T00:58:31.224Z,100904.72
2023-05-08T01:01:00.909Z,100892.63
2023-05-08T01:03:29.726Z,100908.06
2023-05-08T01:05:58.715Z,100909.25
2023-05-08T01:08:27.204Z,100885.59
2023-05-08T01:11:11.320Z,100903.03
2023-05-08T01:14:24.996Z,100897.84
2023-05-08T01:17:35.829Z,100893.47
2023-05-08T01:20:36.593Z,100885.09
2023-05-08T01:23:48.588Z,100872.19
2023-05-08T01:26:38.425Z,100886.94
2023-05-08T01:29:22.510Z,100889.78
2023-05-08T01:32:14.964Z,100893.47
2023-05-08T01:35:20.343Z,100895.97
2023-05-08T01:38:13.371Z,100887.94
2023-05-08T01:41:12.289Z,100886.94
2023-05-08T01:44:24.436Z,100888.09
2023-05-08T01:46:52.947Z,100889.78
2023-05-08T01:49:35.349Z,100881.88
2023-05-08T01:52:07.529Z,100883.59
2023-05-08T01:54:59.317Z,100883.59
2023-05-08T01:57:29.349Z,100883.91
2023-05-08T01:59:59.604Z,100882.56
2023-05-08T02:02:29.597Z,100886.28
2023-05-08T02:04:58.639Z,100866.09
2023-05-08T02:07:27.353Z,100878.53
2023-05-08T02:09:56.168Z,100880.22
2023-05-08T02:12:24.703Z,100877.53
2023-05-08T02:14:53.706Z,100876.97
2023-05-08T02:17:22.244Z,100889.25
2023-05-08T02:19:51.059Z,100894.91
2023-05-08T02:22:19.614Z,100890.72
2023-05-08T02:24:48.461Z,100898.50
2023-05-08T02:27:16.973Z,100895.81
2023-05-08T02:29:45.815Z,100897.94
2023-05-08T02:32:15.687Z,100899.03
2023-05-08T02:34:54.878Z,100894.16
2023-05-08T02:37:28.292Z,100911.22
2023-05-08T02:39:57.200Z,100911.44
2023-05-08T02:42:25.882Z,100905.88
2023-05-08T02:44:54.847Z,100914.75
2023-05-08T02:47:27.962Z,100912.69
2023-05-08T02:50:21.412Z,100918.28
2023-05-08T02:52:52.835Z,100924.03
2023-05-08T02:55:45.032Z,100930.88
2023-05-08T02:58:44.838Z,100929.41
2023-05-08T03:01:27.341Z,100917.25
2023-05-08T03:04:06.455Z,100915.94
2023-05-08T03:06:46.241Z,100914.25
2023-05-08T03:09:21.244Z,100916.78
2023-05-08T03:11:50.826Z,100919.91
2023-05-08T03:14:21.987Z,100911.72
2023-05-08T03:16:51.403Z,100922.50
2023-05-08T03:19:34.762Z,100919.44
2023-05-08T03:22:06.587Z,100922.63
2023-05-08T03:24:36.828Z,100920.22
2023-05-08T03:27:06.023Z,100932.94
2023-05-08T03:29:34.684Z,100936.84
2023-05-08T03:32:03.624Z,100939.38
2023-05-08T03:34:32.037Z,100936.09
2023-05-08T03:37:01.009Z,100927.78
2023-05-08T03:39:30.473Z,100928.66
2023-05-08T03:41:59.557Z,100936.78
2023-05-08T03:44:29.077Z,100941.50
2023-05-08T03:46:58.685Z,100943.50
2023-05-08T03:49:27.554Z,100950.84
2023-05-08T03:51:56.850Z,100954.59
2023-05-08T03:54:25.823Z,100962.88
2023-05-08T03:56:55.630Z,100965.69
2023-05-08T03:59:34.128Z,100982.06
2023-05-08T04:02:33.021Z,100984.44
2023-05-08T04:05:43.961Z,101000.75
2023-05-08T04:08:30.494Z,101002.25
2023-05-08T04:11:06.934Z,100996.19
2023-05-08T04:13:43.401Z,101006.22
2023-05-08T04:16:27.524Z,101021.13
2023-05-08T04:19:04.039Z,101009.41
2023-05-08T04:21:35.658Z,101019.97
2023-05-08T04:24:08.926Z,101027.97
2023-05-08T04:26:37.833Z,101037.53
2023-05-08T04:29:07.405Z,101045.16
2023-05-08T04:31:36.667Z,101046.25
2023-05-08T04:34:05.717Z,101046.41
2023-05-08T04:36:34.187Z,101047.41
2023-05-08T04:39:05.347Z,101050.56
2023-05-08T04:41:35.184Z,101060.28
2023-05-08T04:44:05.564Z,101058.03
2023-05-08T04:46:34.473Z,101062.56
2023-05-08T04:49:03.124Z,101066.25
2023-05-08T04:51:33.091Z,101071.84
2023-05-08T04:54:01.790Z,101076.38
2023-05-08T04:56:31.597Z,101078.22
2023-05-08T04:59:01.669Z,101076.47
2023-05-08T05:01:31.453Z,101083.38
2023-05-08T05:04:00.189Z,101082.06
2023-05-08T05:06:29.046Z,101077.16
2023-05-08T05:08:58.490Z,101083.06
2023-05-08T05:11:27.705Z,101077.69
2023-05-08T05:13:56.360Z,101082.50
2023-05-08T05:16:25.335Z,101081.53
2023-05-08T05:18:54.296Z,101077.84
2023-05-08T05:21:23.351Z,101081.47
2023-05-08T05:23:52.171Z,101084.44
2023-05-08T05:26:21.935Z,101084.28
2023-05-08T05:28:50.530Z,101085.59
2023-05-08T05:31:19.418Z,101090.13
2023-05-08T05:33:48.526Z,101087.03
2023-05-08T05:36:17.430Z,101099.69
2023-05-08T05:38:46.021Z,101093.63
2023-05-08T05:41:14.917Z,101082.38
2023-05-08T05:43:43.489Z,101087.88
2023-05-08T05:46:12.338Z,101088.97
2023-05-08T05:48:42.211Z,101088.38
2023-05-08T05:51:12.558Z,101086.94
2023-05-08T05:53:41.167Z,101081.13
2023-05-08T05:56:09.928Z,101074.47
2023-05-08T05:58:40.841Z,101076.00
2023-05-08T06:01:11.086Z,101065.28
2023-05-08T06:03:39.626Z,101069.50
2023-05-08T06:06:08.881Z,101073.00
2023-05-08T06:08:37.410Z,101074.72
2023-05-08T06:11:06.279Z,101080.06
2023-05-08T06:13:35.008Z,101065.22
2023-05-08T06:16:03.928Z,101073.63
2023-05-08T06:18:32.475Z,101073.78
2023-05-08T06:21:01.462Z,101076.44
2023-05-08T06:23:30.030Z,101078.69
2023-05-08T06:25:59.341Z,101075.31
2023-05-08T06:28:28.364Z,101081.22
2023-05-08T06:30:57.220Z,101084.81
2023-05-08T06:33:27.043Z,101078.44
2023-05-08T06:35:56.705Z,101088.56
2023-05-08T06:38:25.191Z,101088.94
2023-05-08T06:40:55.511Z,101089.50
2023-05-08T06:43:24.224Z,101081.59
2023-05-08T06:45:53.541Z,101091.34
2023-05-08T06:48:22.232Z,101089.22
2023-05-08T06:50:52.110Z,101098.22
2023-05-08T06:53:20.696Z,101092.19
2023-05-08T06:55:49.724Z,101102.56
2023-05-08T06:58:18.263Z,101089.50
2023-05-08T07:00:47.223Z,101089.25
2023-05-08T07:03:16.641Z,101089.25
2023-05-08T07:05:45.508Z,101097.97
2023-05-08T07:08:13.934Z,101093.50
2023-05-08T07:10:42.767Z,101099.69
2023-05-08T07:13:11.277Z,101099.94
2023-05-08T07:15:40.516Z,101097.28
2023-05-08T07:18:09.100Z,101109.91
2023-05-08T07:20:38.022Z,101106.25
2023-05-08T07:23:07.510Z,101109.22
2023-05-08T07:25:36.923Z,101107.38
2023-05-08T07:28:05.722Z,101107.78
2023-05-08T07:30:34.657Z,101109.75
2023-05-08T07:33:03.249Z,101118.72
2023-05-08T07:35:32.292Z,101116.66
2023-05-08T07:38:00.746Z,101122.84
2023-05-08T07:40:29.591Z,101121.25
2023-05-08T07:42:58.059Z,101118.91
2023-05-08T07:45:26.929Z,101130.00
2023-05-08T07:47:57.905Z,101131.97
2023-05-08T07:50:27.164Z,101127.16
2023-05-08T07:52:55.702Z,101126.34
2023-05-08T07:55:24.604Z,101132.28
2023-05-08T07:57:53.093Z,101124.34
2023-05-08T08:00:22.128Z,101133.38
2023-05-08T08:02:50.689Z,101131.97
2023-05-08T08:05:19.859Z,101122.31
2023-05-08T08:07:48.560Z,101136.19
2023-05-08T08:10:17.367Z,101135.34
2023-05-08T08:12:46.065Z,101130.00
2023-05-08T08:15:15.031Z,101135.44
2023-05-08T08:17:43.820Z,101132.63
2023-05-08T08:20:13.172Z,101132.44
2023-05-08T08:22:43.041Z,101133.81
2023-05-08T08:25:12.576Z,101140.56
2023-05-08T08:27:41.402Z,101140.03
2023-05-08T08:30:17.571Z,101140.84
2023-05-08T08:32:47.236Z,101138.88
2023-05-08T08:35:17.096Z,101136.88
2023-05-08T08:37:45.982Z,101138.34
2023-05-08T08:40:15.012Z,101138.00
2023-05-08T08:42:43.519Z,101144.75
2023-05-08T08:45:12.747Z,101137.59
2023-05-08T08:47:42.587Z,101142.78
2023-05-08T08:50:14.407Z,101142.78
2023-05-08T08:53:17.545Z,101143.78
2023-05-08T08:55:47.336Z,101153.22
2023-05-08T08:58:36.522Z,101153.50
2023-05-08T09:01:07.540Z,101146.47
2023-05-08T09:03:36.153Z,101154.03
2023-05-08T09:06:05.206Z,101150.66
2023-05-08T09:08:33.946Z,101155.06
2023-05-08T09:11:03.466Z,101152.38
2023-05-08T09:13:32.210Z,101156.59
2023-05-08T09:16:01.347Z,101149.53
2023-05-08T09:18:29.893Z,101151.50
2023-05-08T09:21:01.586Z,101153.75
2023-05-08T09:23:30.125Z,101160.94
2023-05-08T09:25:58.948Z,101161.09
2023-05-08T09:28:27.477Z,101159.03
2023-05-08T09:31:00.246Z,101163.25
2023-05-08T09:33:29.599Z,101157.47
2023-05-08T09:35:58.527Z,101158.47
2023-05-08T09:38:37.214Z,101165.53
2023-05-08T09:41:17.293Z,101166.53
2023-05-08T09:44:00.349Z,101165.56
2023-05-08T09:46:29.061Z,101155.56
2023-05-08T09:49:02.405Z,101177.84
2023-05-08T09:51:32.225Z,101178.22
2023-05-08T09:54:00.867Z,101185.28
2023-05-08T09:56:37.784Z,101176.78
2023-05-08T09:59:27.116Z,101169.91
2023-05-08T10:01:56.313Z,101171.28
2023-05-08T10:04:35.252Z,101168.88
2023-05-08T10:07:04.682Z,101178.03
2023-05-08T10:09:43.014Z,101174.66
2023-05-08T10:12:19.299Z,101183.69
2023-05-08T10:14:47.834Z,101164.22
2023-05-08T10:17:17.320Z,101174.66
2023-05-08T10:19:46.419Z,101164.91
2023-05-08T10:22:15.204Z,101172.13
2023-05-08T10:24:43.773Z,101164.22
2023-05-08T10:27:30.670Z,101158.84
2023-05-08T10:30:04.463Z,101163.63
2023-05-08T10:32:44.348Z,101160.41
2023-05-08T10:35:12.998Z,101164.47
2023-05-08T10:37:42.641Z,101154.03
2023-05-08T10:40:11.798Z,101145.84
2023-05-08T10:42:40.880Z,101150.22
2023-05-08T10:45:09.888Z,101147.25
2023-05-08T10:48:24.382Z,101140.91
2023-05-08T10:51:20.930Z,101134.69
2023-05-08T10:54:37.752Z,101138.22
2023-05-08T10:57:12.717Z,101133.69
2023-05-08T10:59:47.130Z,101137.22
2023-05-08T11:02:17.031Z,101140.22
2023-05-08T11:04:46.282Z,101137.06
2023-05-08T11:07:14.869Z,101131.50
2023-05-08T11:09:43.824Z,101137.72
2023-05-08T11:12:28.856Z,101136.63
2023-05-08T11:15:06.778Z,101141.84
2023-05-08T11:17:35.404Z,101138.59
2023-05-08T11:20:07.171Z,101131.88
2023-05-08T11:22:37.166Z,101140.66
2023-05-08T11:25:09.116Z,101137.78
2023-05-08T11:27:39.686Z,101143.66
2023-05-08T11:30:30.444Z,101152.81
2023-05-08T11:33:06.277Z,101152.13
2023-05-08T11:35:47.730Z,101154.06
2023-05-08T11:38:36.479Z,101154.16
2023-05-08T11:41:27.417Z,101143.72
2023-05-08T11:44:04.105Z,101148.63
2023-05-08T11:46:49.242Z,101147.69
2023-05-08T11:49:21.499Z,101157.53
2023-05-08T11:51:58.305Z,101142.84
2023-05-08T11:54:29.076Z,101138.03
2023-05-08T11:56:59.755Z,101140.03
2023-05-08T11:59:28.369Z,101141.56
2023-05-08T12:02:07.925Z,101140.31
2023-05-08T12:04:45.872Z,101138.84
2023-05-08T12:07:16.227Z,101123.78
2023-05-08T12:09:46.235Z,101126.53
2023-05-08T12:12:15.073Z,101139.94
2023-05-08T12:14:43.681Z,101133.59
2023-05-08T12:17:12.540Z,101121.25
2023-05-08T12:19:41.279Z,101133.75
2023-05-08T12:22:10.416Z,101125.84
2023-05-08T12:24:39.805Z,101128.13
2023-05-08T12:27:08.764Z,101131.53
2023-05-08T12:29:38.005Z,101125.91
2023-05-08T12:32:06.885Z,101130.81
2023-05-08T12:34:35.610Z,101129.97
2023-05-08T12:37:05.833Z,101125.31
2023-05-08T12:39:37.896Z,101130.13
2023-05-08T12:42:06.865Z,101138.59
2023-05-08T12:44:35.362Z,101135.06
2023-05-08T12:47:06.288Z,101132.91
2023-05-08T12:49:34.839Z,101133.75
2023-05-08T12:52:08.501Z,101131.63
2023-05-08T12:54:39.336Z,101135.97
2023-05-08T12:57:18.256Z,101138.50
2023-05-08T12:59:46.866Z,101136.53
2023-05-08T13:02:22.158Z,101127.50
2023-05-08T13:04:56.207Z,101131.16
2023-05-08T13:07:25.533Z,101136.22
2023-05-08T13:10:05.085Z,101120.16
2023-05-08T13:12:34.313Z,101122.22
2023-05-08T13:15:05.019Z,101123.19
2023-05-08T13:17:34.288Z,101121.22
2023-05-08T13:20:06.125Z,101120.38
2023-05-08T13:22:35.128Z,101117.00
2023-05-08T13:25:04.173Z,101117.97
2023-05-08T13:27:33.019Z,101112.63
2023-05-08T13:30:01.466Z,101102.34
2023-05-08T13:32:30.274Z,101097.69
2023-05-08T13:35:00.795Z,101095.69
2023-05-08T13:37:30.654Z,101085.66
2023-05-08T13:39:59.258Z,101089.22
2023-05-08T13:42:28.049Z,101087.91
2023-05-08T13:44:56.692Z,101085.91
2023-05-08T13:47:25.565Z,101078.16
2023-05-08T13:49:54.067Z,101087.44
2023-05-08T13:52:22.980Z,101087.44
2023-05-08T13:54:51.613Z,101079.69
2023-05-08T13:57:20.385Z,101084.06
2023-05-08T13:59:48.989Z,101086.75
2023-05-08T14:02:18.107Z,101083.06
2023-05-08T14:04:46.845Z,101083.06
2023-05-08T14:07:15.830Z,101090.03
2023-05-08T14:09:45.328Z,101091.41
2023-05-08T14:12:14.592Z,101095.41
2023-05-08T14:14:43.106Z,101089.97
2023-05-08T14:17:12.039Z,101090.03
2023-05-08T14:19:40.569Z,101089.84
2023-05-08T14:22:09.456Z,101078.44
2023-05-08T14:24:38.056Z,101077.06
2023-05-08T14:27:07.008Z,101072.94
2023-05-08T14:29:35.635Z,101075.47
2023-05-08T14:32:05.206Z,101072.66
2023-05-08T14:34:33.755Z,101066.97
2023-05-08T14:37:02.866Z,101059.06
2023-05-08T14:39:31.677Z,101058.38
2023-05-08T14:44:34.715Z,101046.69
2023-05-08T14:47:03.664Z,101037.47
2023-05-08T14:49:37.925Z,101046.44
2023-05-08T14:52:07.652Z,101038.84
2023-05-08T14:54:36.314Z,101039.38
2023-05-08T14:57:05.320Z,101044.47
2023-05-08T14:59:33.819Z,101043.44
2023-05-08T15:02:03.239Z,101039.78
2023-05-08T15:04:31.887Z,101031.06
2023-05-08T15:07:00.848Z,101043.84
2023-05-08T15:09:29.426Z,101048.50
2023-05-08T15:11:58.297Z,101045.84
2023-05-08T15:14:27.356Z,101037.78
2023-05-08T15:16:56.296Z,101034.28
2023-05-08T15:19:24.984Z,101032.56
2023-05-08T15:21:53.851Z,101030.22
2023-05-08T15:24:22.432Z,101040.47
2023-05-08T15:26:51.235Z,101040.47
2023-05-08T15:29:19.796Z,101038.47
2023-05-08T15:31:48.852Z,101044.53
2023-05-08T15:34:17.634Z,101036.41
2023-05-08T15:36:46.820Z,101048.50
2023-05-08T15:39:15.541Z,101050.38
2023-05-08T15:41:44.672Z,101048.66
2023-05-08T15:44:14.301Z,101045.00
2023-05-08T15:46:43.220Z,101043.16
2023-05-08T15:49:11.828Z,101045.84
2023-05-08T15:51:40.820Z,101050.38
2023-05-08T15:54:09.296Z,101042.47
2023-05-08T15:56:38.131Z,101045.84
2023-05-08T15:59:06.855Z,101045.00
2023-05-08T16:01:36.025Z,101045.84
2023-05-08T16:04:04.980Z,101053.88
2023-05-08T16:06:34.092Z,101059.09
2023-05-08T16:09:03.063Z,101056.56
2023-05-08T16:11:33.473Z,101061.09
2023-05-08T16:14:02.248Z,101056.56
2023-05-08T16:16:31.190Z,101059.53
2023-05-08T16:18:59.757Z,101061.91
2023-05-08T16:21:28.865Z,101056.56
2023-05-08T16:23:58.005Z,101054.03
2023-05-08T16:26:26.850Z,101047.81
2023-05-08T16:28:55.342Z,101047.81
2023-05-08T16:31:24.239Z,101051.19
2023-05-08T16:33:52.789Z,101048.81
2023-05-08T16:36:21.751Z,101049.00
2023-05-08T16:38:50.380Z,101055.19
2023-05-08T16:41:19.233Z,101062.22
2023-05-08T16:43:47.660Z,101060.41
2023-05-08T16:46:18.902Z,101063.66
2023-05-08T16:48:52.413Z,101067.50
2023-05-08T16:51:21.342Z,101061.75
2023-05-08T16:53:49.856Z,101074.47
2023-05-08T16:56:18.655Z,101071.88
2023-05-08T16:58:47.072Z,101066.94
2023-05-08T17:01:16.252Z,101067.78
2023-05-08T17:03:44.950Z,101071.47
2023-05-08T17:06:14.211Z,101065.81
2023-05-08T17:08:42.651Z,101066.22
2023-05-08T17:11:11.447Z,101068.91
2023-05-08T17:13:39.893Z,101065.53
2023-05-08T17:16:09.171Z,101069.50
2023-05-08T17:18:37.639Z,101072.19
2023-05-08T17:21:06.555Z,101079.69
2023-05-08T17:23:34.950Z,101079.13
2023-05-08T17:26:03.848Z,101086.47
2023-05-08T17:28:32.399Z,101082.41
2023-05-08T17:31:01.240Z,101079.66
2023-05-08T17:33:29.935Z,101084.44
2023-05-08T17:35:58.766Z,101088.66
2023-05-08T17:38:27.321Z,101090.25
2023-05-08T17:40:57.127Z,101090.53
2023-05-08T17:43:28.679Z,101087.03
2023-05-08T17:45:58.247Z,101079.03
2023-05-08T17:48:26.830Z,101097.19
2023-05-08T17:50:55.585Z,101097.88
2023-05-08T17:53:23.991Z,101102.53
2023-05-08T17:55:53.110Z,101103.53
2023-05-08T17:58:21.479Z,101106.50
2023-05-08T18:00:50.470Z,101108.88
2023-05-08T18:03:19.224Z,101103.25
2023-05-08T18:05:48.280Z,101112.56
2023-05-08T18:08:16.974Z,101107.22
2023-05-08T18:10:46.233Z,101110.63
2023-05-08T18:13:15.157Z,101121.28
2023-05-08T18:15:44.538Z,101124.94
2023-05-08T18:18:13.211Z,101127.25
2023-05-08T18:20:42.027Z,101126.44
2023-05-08T18:23:10.606Z,101135.00
2023-05-08T18:25:39.456Z,101130.19
2023-05-08T18:28:07.889Z,101138.09
2023-05-08T18:30:38.366Z,101136.56
2023-05-08T18:33:06.887Z,101136.25
2023-05-08T18:35:35.813Z,101128.94
2023-05-08T18:38:06.216Z,101138.53
2023-05-08T18:40:36.797Z,101137.69
2023-05-08T18:43:05.302Z,101140.38
2023-05-08T18:45:34.403Z,101140.25
2023-05-08T18:48:03.036Z,101143.63
2023-05-08T18:50:31.889Z,101148.72
2023-05-08T18:53:00.454Z,101149.00
2023-05-08T18:55:29.304Z,101146.03
2023-05-08T18:57:57.847Z,101145.19
2023-05-08T19:00:26.946Z,101165.06
2023-05-08T19:02:55.739Z,101150.13
2023-05-08T19:05:24.883Z,101161.69
2023-05-08T19:07:53.365Z,101152.09
2023-05-08T19:10:22.337Z,101158.31
2023-05-08T19:12:51.028Z,101156.03
2023-05-08T19:15:20.068Z,101177.16
2023-05-08T19:17:48.586Z,101172.09
2023-05-08T19:20:17.446Z,101173.78
2023-05-08T19:22:47.339Z,101178.84
2023-05-08T19:25:16.508Z,101165.34
2023-05-08T19:27:45.298Z,101176.75
2023-05-08T19:30:14.485Z,101183.38
2023-05-08T19:32:43.410Z,101181.25
2023-05-08T19:35:12.353Z,101181.41
2023-05-08T19:37:40.943Z,101187.34
2023-05-08T19:40:10.594Z,101179.72
2023-05-08T19:42:39.169Z,101196.91
2023-05-08T19:45:10.473Z,101179.13
2023-05-08T19:47:40.237Z,101194.22
2023-05-08T19:50:15.334Z,101191.53
2023-05-08T19:52:48.559Z,101200.53
2023-05-08T19:55:19.792Z,101203.22
2023-05-08T19:57:50.749Z,101198.31
2023-05-08T20:00:21.022Z,101214.34
2023-05-08T20:02:51.081Z,101212.66
2023-05-08T20:05:26.795Z,101215.50
2023-05-08T20:07:57.050Z,101212.66
2023-05-08T20:10:27.623Z,101210.84
2023-05-08T20:12:56.571Z,101216.44
2023-05-08T20:15:26.474Z,101213.66
2023-05-08T20:17:56.747Z,101212.81
2023-05-08T20:20:28.488Z,101213.22
2023-05-08T20:22:57.374Z,101210.66
2023-05-08T20:25:27.654Z,101212.38
2023-05-08T20:27:57.958Z,101211.81
2023-05-08T20:30:28.422Z,101210.28
2023-05-08T20:33:02.509Z,101209.13
2023-05-08T20:35:32.509Z,101218.88
2023-05-08T20:38:01.029Z,101208.16
2023-05-08T20:40:29.892Z,101211.53
2023-05-08T20:42:58.423Z,101207.59
2023-05-08T20:45:27.270Z,101212.09
2023-05-08T20:47:55.884Z,101213.91
2023-05-08T20:50:24.709Z,101213.78
2023-05-08T20:52:53.749Z,101203.06
2023-05-08T20:55:23.170Z,101207.28
2023-05-08T20:57:51.718Z,101207.59
2023-05-08T21:00:21.567Z,101202.94
2023-05-08T21:02:50.159Z,101198.56
2023-05-08T21:05:19.284Z,101200.53
2023-05-08T21:07:47.819Z,101201.09
2023-05-08T21:10:16.910Z,101208.41
2023-05-08T21:12:45.784Z,101194.34
2023-05-08T21:15:14.961Z,101200.81
2023-05-08T21:17:43.668Z,101183.38
2023-05-08T21:20:13.174Z,101188.84
2023-05-08T21:22:41.773Z,101184.19
2023-05-08T21:25:17.468Z,101187.84
2023-05-08T21:27:46.364Z,101186.72
2023-05-08T21:30:16.672Z,101187.69
2023-05-08T21:32:46.037Z,101192.06
2023-05-08T21:35:15.993Z,101190.66
2023-05-08T21:37:44.898Z,101193.97
2023-05-08T21:40:13.818Z,101184.84
2023-05-08T21:42:42.454Z,101191.31
2023-05-08T21:45:11.969Z,101186.22
2023-05-08T21:47:40.750Z,101178.06
2023-05-08T21:50:10.191Z,101185.63
2023-05-08T21:52:38.781Z,101189.50
2023-05-08T21:55:08.852Z,101192.69
2023-05-08T21:57:37.748Z,101188.84
2023-05-08T22:00:08.335Z,101192.94
2023-05-08T22:02:37.224Z,101184.66
2023-05-08T22:05:07.714Z,101187.31
2023-05-08T22:07:36.278Z,101190.13
2023-05-08T22:10:05.918Z,101188.75
2023-05-08T22:12:34.365Z,101196.63
2023-05-08T22:15:07.515Z,101195.38
2023-05-08T22:17:41.104Z,101198.56
2023-05-08T22:20:12.735Z,101201.94
2023-05-08T22:22:41.934Z,101202.66
2023-05-08T22:25:10.933Z,101203.34
2023-05-08T22:27:39.626Z,101198.56
2023-05-08T22:30:08.992Z,101204.78
2023-05-08T22:32:37.577Z,101184.47
2023-05-08T22:35:07.290Z,101186.19
2023-05-08T22:37:36.938Z,101187.44
2023-05-08T22:40:06.905Z,101187.44
2023-05-08T22:42:35.458Z,101186.44
2023-05-08T22:45:04.974Z,101188.00
2023-05-08T22:47:34.590Z,101181.06
2023-05-08T22:50:08.579Z,101177.31
2023-05-08T22:52:37.288Z,101187.84
2023-05-08T22:55:07.085Z,101186.16
2023-05-08T22:57:35.818Z,101188.13
2023-05-08T23:00:06.955Z,101182.78
2023-05-08T23:02:35.697Z,101194.88
2023-05-08T23:05:05.108Z,101186.84
2023-05-08T23:07:33.714Z,101170.94
2023-05-08T23:10:02.990Z,101175.13
2023-05-08T23:12:31.599Z,101167.41
2023-05-08T23:15:00.590Z,101164.72
2023-05-08T23:17:29.188Z,101171.47
2023-05-08T23:19:58.505Z,101160.78
2023-05-08T23:22:28.930Z,101162.63
2023-05-08T23:24:57.836Z,101160.63
2023-05-08T23:27:26.497Z,101156.25
2023-05-08T23:29:55.367Z,101166.13
2023-05-08T23:32:23.855Z,101159.94
2023-05-08T23:34:52.724Z,101157.41
2023-05-08T23:37:21.625Z,101157.41
2023-05-08T23:39:50.588Z,101156.25
2023-05-08T23:42:20.594Z,101154.84
2023-05-08T23:44:49.460Z,101155.41
2023-05-08T23:47:19.530Z,101157.09
2023-05-08T23:49:48.697Z,101150.91
2023-05-08T23:52:17.807Z,101141.31
2023-05-08T23:54:46.648Z,101136.25
2023-05-08T23:57:15.422Z,101137.50
2023-05-08T23:59:44.338Z,101148.34
